Weather at Aurora Lakeland Medical Center Heliport

Public forecast

Using degrees Fahrenheit for public forecast. Weather courtesy of forecast.io.

Closest aviation weather report (METAR) to Aurora Lakeland Medical Center Heliport

Closest report is Burlington Municipal Airport, 8.7 nm (16.0 km) ENE. Retrieved 2021/06/13 17:35 UTC (19 minutes ago):

KBUU 131735Z AUTO 34008KT 310V010 10SM 30/10 A3001 RMK AO2 T02950104 PWINO

Closest aviation forecast (TAF) to Aurora Lakeland Medical Center Heliport

Closest forecast is Southern Wisconsin Regional Airport, 24.2 nm (44.8 km) W. Retrieved 2021/06/13 12:22 UTC (6 hours ago):

TAF KJVL 131120Z 1312/1412 34004KT P6SM SKC FM131700 33008KT P6SM SKC FM140200 24004KT P6SM SKC FM140700 29007KT P6SM FEW200